Tampa, FL

08:38 PM EDT am 25. Juli 2016 (GMT -0400)
MacDill Air Force Base | | Change Station

Höhe 13 ft 27.85 °N, 82.52 °W | Updated 40 minutes ago

Scattered Clouds
Teils Wolkig
87 °F
gefühlte 97 °F
N
7
Wind Wechselnd Wind aus Südwest

Heute
Max. -- | schwach -- °F
--% Regenrisiko
Gestern
Max. -- | schwach -- °F
Precip. -- inch
Druck 30.04 inch
Sichtweite 10.0 Meilen
Wolken Teils Wolkig 9500 ft
Teils Wolkig 13000 ft
Hitzeindex 97 °F
Taupunkt 76 °F
Feuchtigkeit 69%
Regen 0.00 inch
Schneehöhe Nicht verfügbar..
6:49 AM 8:23 PM
Drittes Viertel, 61% visible
METAR KMCF 252358Z AUTO 23006KT 10SM SCT095 SCT130 31/24 A3003 RMK AO2 LTG DSNT S SLP172 60000 T03050242 10340 20270 53006
Druck 30.04 inch
Sichtweite 10.0 Meilen
Wolken Teils Wolkig 9500 ft
Teils Wolkig 13000 ft
Hitzeindex 97 °F
Taupunkt 76 °F
Feuchtigkeit 69%
Regen 0.00 inch
Schneehöhe Nicht verfügbar..
6:49 AM 8:23 PM
Drittes Viertel, 61% visible
METAR KMCF 252358Z AUTO 23006KT 10SM SCT095 SCT130 31/24 A3003 RMK AO2 LTG DSNT S SLP172 60000 T03050242 10340 20270 53006
Record highs are possible for parts of the Northeast Monday and Tuesday, as parts of the central U.S. take a little breather from the worst of summer's dog day heat.

Expansive high pressure in the upper atmosphere will focus on parts of the East and West this week, sending heat indices well into the triple digits from the Mid-Atlantic states into the South.

10-Day Weather Forecast

Almanac

Astronomie

Jul. 25, 2016 Aufgang Untergang
Genaue Zeit
Bürgerliche Dämmerung
Nautische Dämmerung
Astronomische Dämmerung
Mond
Länge des sichtbaren Lichts
Tageslänge
Tomorrow will be .
, % of the Moon is Illuminated

Heutige Rekorde

State Highs State Lows

Community

WunderPhotos

Upload Photos

1,927,479 Fotos hochgeladen!

WunderBlog® & News

Nearby

Luftqualität

  Luftqualität LQ Index Schadstoff
Not available.

Schneehöhe

Station Depth Höhe

Erdbebenaktivität

Stadt Distance Mag. Time & Date
Minimum magnitude displayed is 2.5.

küstennahe Wassertemperaturen

Ort Temperatur

Stations

Wetterstationen in der Umgebung

Stationsstandort Temp. Windchill Taupunkt Feuchtigkeit Wind Precip. Höhe Aktualisiert Art
                   

Watches & Warnings

There are currently no watches in effect.